Time;durP1;ratioP1;P1;durP2;ratioP2;P2;SDS_P1;SDS_P2;PMS_P1;PMS_P2;Temp;Humidity;BMP_temperature;BMP_pressure;BME280_temperature;BME280_humidity;BME280_pressure;Samples;Min_cycle;Max_cycle;Signal;HPM_P1;HPM_P2
2022/07/10 00:09:56;;;;;;;0.75;0.30;;;15.70;99.90;;;;;;21019681;27;20479;-39
2022/07/10 00:19:57;;;;;;;0.70;0.30;;;15.60;99.90;;;;;;21058855;28;20341;-39
2022/07/10 00:29:59;;;;;;;0.60;0.20;;;15.40;99.90;;;;;;21052535;28;20077;-39
2022/07/10 00:40:00;;;;;;;0.98;0.32;;;15.30;99.90;;;;;;21035893;28;20188;-39
2022/07/10 00:50:01;;;;;;;0.70;0.20;;;15.20;99.90;;;;;;21064608;28;20538;-39
2022/07/10 01:00:03;;;;;;;1.10;0.32;;;15.10;99.90;;;;;;21037613;28;20526;-39
2022/07/10 01:10:04;;;;;;;2.88;0.20;;;15.00;99.90;;;;;;21018583;28;20111;-39
2022/07/10 01:20:08;;;;;;;0.50;0.20;;;14.90;99.90;;;;;;21074373;28;20495;-39
2022/07/10 01:30:09;;;;;;;1.83;0.47;;;14.90;99.90;;;;;;21012485;28;20098;-39
2022/07/10 01:40:11;;;;;;;3.40;0.17;;;14.80;99.90;;;;;;21044372;28;20763;-39
2022/07/10 01:50:12;;;;;;;2.33;0.40;;;14.70;99.90;;;;;;21075739;27;20134;-39
2022/07/10 02:00:14;;;;;;;0.85;0.30;;;14.70;99.90;;;;;;21063527;27;21066;-39
2022/07/10 02:10:15;;;;;;;0.68;0.20;;;14.70;99.90;;;;;;21064034;27;20066;-39
2022/07/10 02:20:16;;;;;;;0.63;0.10;;;14.80;99.90;;;;;;21074063;27;21139;-39
2022/07/10 02:40:59;;;;;;;0.80;0.35;;;14.60;99.90;;;;;;21287126;23;20475;-82
2022/07/10 02:51:00;;;;;;;1.25;0.40;;;14.60;99.90;;;;;;20741502;28;20404;-79
2022/07/10 03:01:01;;;;;;;0.98;0.30;;;14.50;99.90;;;;;;20738505;28;20041;-79
2022/07/10 03:11:02;;;;;;;2.80;0.95;;;14.50;99.90;;;;;;20742208;28;20034;-79
2022/07/10 03:21:04;;;;;;;0.43;0.20;;;14.60;99.90;;;;;;20746325;28;20037;-79
2022/07/10 03:31:05;;;;;;;0.70;0.20;;;14.70;99.90;;;;;;20756346;28;20041;-79
2022/07/10 03:41:06;;;;;;;1.02;0.43;;;14.70;99.90;;;;;;20753965;28;20042;-79
2022/07/10 03:51:07;;;;;;;0.80;0.20;;;14.80;99.90;;;;;;20771758;28;20052;-80
2022/07/10 04:01:08;;;;;;;0.75;0.38;;;14.90;99.90;;;;;;20780232;28;20046;-79
2022/07/10 04:11:09;;;;;;;1.48;0.30;;;14.90;99.90;;;;;;20767951;28;20034;-79
2022/07/10 04:21:10;;;;;;;1.23;0.30;;;14.90;99.90;;;;;;20763447;28;20041;-80
2022/07/10 04:31:11;;;;;;;2.65;0.68;;;15.00;99.90;;;;;;20736214;28;20455;-80
2022/07/10 04:41:12;;;;;;;1.05;0.30;;;15.10;99.90;;;;;;20746646;28;20106;-79
2022/07/10 04:51:13;;;;;;;0.52;0.17;;;15.20;99.90;;;;;;20891490;28;20089;-79
2022/07/10 05:01:14;;;;;;;0.98;0.63;;;15.20;99.90;;;;;;20891655;28;20044;-79
2022/07/10 05:11:15;;;;;;;6.72;0.40;;;15.30;99.90;;;;;;20886358;28;20047;-79
2022/07/10 05:21:17;;;;;;;0.70;0.30;;;15.40;99.90;;;;;;20903024;28;20048;-79
2022/07/10 05:31:17;;;;;;;1.65;0.30;;;15.40;99.90;;;;;;20911940;28;20071;-79
2022/07/10 05:41:18;;;;;;;0.70;0.30;;;15.50;99.90;;;;;;20903141;28;20049;-79
2022/07/10 05:51:20;;;;;;;0.85;0.30;;;15.50;99.90;;;;;;20903067;28;20048;-79
2022/07/10 06:01:21;;;;;;;0.43;0.20;;;15.70;99.90;;;;;;20921302;28;20041;-79
2022/07/10 06:11:22;;;;;;;1.00;0.30;;;15.80;99.90;;;;;;20903337;28;20028;-79
2022/07/10 06:21:23;;;;;;;1.67;1.08;;;15.90;99.90;;;;;;20930461;28;20025;-79
2022/07/10 06:31:24;;;;;;;0.77;0.20;;;16.10;99.90;;;;;;20926356;28;20063;-79
2022/07/10 06:41:25;;;;;;;2.10;0.20;;;16.20;99.90;;;;;;20887733;28;20044;-79
2022/07/10 06:51:26;;;;;;;1.27;0.30;;;16.20;99.90;;;;;;20883264;28;20036;-79
2022/07/10 07:01:27;;;;;;;0.43;0.10;;;16.30;99.90;;;;;;20890960;28;20048;-79
2022/07/10 07:11:28;;;;;;;1.45;0.40;;;16.30;99.90;;;;;;20851138;28;20028;-79
2022/07/10 07:31:55;;;;;;;0.77;0.40;;;16.70;99.90;;;;;;20868639;28;20757;-79
2022/07/10 07:41:56;;;;;;;0.60;0.20;;;16.70;99.90;;;;;;20883110;28;20048;-80
2022/07/10 07:51:57;;;;;;;0.88;0.30;;;16.70;99.90;;;;;;20879490;28;20044;-78
2022/07/10 08:01:58;;;;;;;1.13;0.47;;;17.00;99.90;;;;;;20871090;28;20099;-78
2022/07/10 08:11:59;;;;;;;1.02;0.60;;;17.20;99.90;;;;;;20885527;28;20037;-78
2022/07/10 08:22:00;;;;;;;1.10;0.30;;;17.50;99.90;;;;;;20884533;28;20036;-81
2022/07/10 08:32:01;;;;;;;1.45;0.43;;;17.50;99.90;;;;;;20881905;28;20047;-79
2022/07/10 08:42:04;;;;;;;2.38;1.02;;;17.90;99.90;;;;;;20873383;28;20040;-79
2022/07/10 08:52:05;;;;;;;1.45;0.40;;;18.20;99.90;;;;;;20897245;28;20087;-79
2022/07/10 09:02:06;;;;;;;0.98;0.45;;;18.60;99.90;;;;;;20871298;28;20622;-78
2022/07/10 09:12:09;;;;;;;1.27;0.30;;;18.60;99.90;;;;;;20885381;28;20037;-79
2022/07/10 09:22:12;;;;;;;1.00;0.20;;;18.70;99.90;;;;;;20873814;28;20044;-79
2022/07/10 09:32:13;;;;;;;0.45;0.22;;;18.80;99.90;;;;;;20885974;28;20036;-79
2022/07/10 09:42:26;;;;;;;0.50;0.20;;;18.90;99.90;;;;;;20877653;28;20150;-79
2022/07/10 09:52:28;;;;;;;0.77;0.28;;;19.10;99.90;;;;;;20858116;28;21697;-79
2022/07/10 10:02:29;;;;;;;0.73;0.20;;;19.30;99.90;;;;;;20873550;28;20048;-80
2022/07/10 10:12:54;;;;;;;0.90;0.30;;;19.60;99.90;;;;;;20879893;28;20036;-80
2022/07/10 10:23:00;;;;;;;0.80;0.30;;;19.60;99.90;;;;;;20878512;28;20309;-79
2022/07/10 10:33:02;;;;;;;0.40;0.20;;;19.60;99.90;;;;;;20876823;28;20759;-80
2022/07/10 10:43:36;;;;;;;0.60;0.20;;;19.90;99.90;;;;;;20885315;28;20045;-80
2022/07/10 10:53:37;;;;;;;1.50;0.50;;;19.90;99.90;;;;;;20848879;28;20392;-80
2022/07/10 11:03:38;;;;;;;0.68;0.30;;;20.00;99.90;;;;;;20871962;28;20483;-79
2022/07/10 11:13:40;;;;;;;18.00;0.63;;;20.10;99.90;;;;;;20875566;28;20495;-79
2022/07/10 11:24:21;;;;;;;0.63;0.20;;;20.40;99.90;;;;;;20875094;28;20125;-81
2022/07/10 11:34:22;;;;;;;0.43;0.20;;;20.40;99.90;;;;;;20851246;28;20135;-77
2022/07/10 11:44:23;;;;;;;0.88;0.28;;;20.60;99.90;;;;;;20888042;28;20192;-78
2022/07/10 11:54:24;;;;;;;0.80;0.35;;;20.70;99.90;;;;;;20898016;28;20036;-78
2022/07/10 12:04:30;;;;;;;0.68;0.32;;;20.70;99.90;;;;;;20880925;28;20043;-77
2022/07/10 12:14:32;;;;;;;0.25;0.10;;;21.20;99.90;;;;;;20873546;28;20033;-77
2022/07/10 12:24:34;;;;;;;0.40;0.17;;;21.30;99.90;;;;;;20864692;28;20103;-76
2022/07/10 12:34:39;;;;;;;0.55;0.10;;;21.60;99.90;;;;;;20894827;28;20048;-77
2022/07/10 12:44:41;;;;;;;0.68;0.30;;;21.50;99.90;;;;;;20880799;28;20086;-76
2022/07/10 12:54:43;;;;;;;0.40;0.15;;;21.60;99.90;;;;;;20880799;28;20048;-76
2022/07/10 13:04:57;;;;;;;0.73;0.20;;;21.60;99.90;;;;;;20868498;28;20048;-76
2022/07/10 13:14:58;;;;;;;1.08;0.20;;;21.50;99.90;;;;;;20893481;28;20045;-76
2022/07/10 13:24:59;;;;;;;0.60;0.20;;;21.60;99.90;;;;;;20868491;28;20028;-78
2022/07/10 13:35:00;;;;;;;0.47;0.13;;;21.50;99.90;;;;;;20867997;28;20056;-78
2022/07/10 13:45:01;;;;;;;0.82;0.20;;;21.50;99.90;;;;;;20910612;28;20121;-79
2022/07/10 13:55:04;;;;;;;0.63;0.20;;;21.50;99.90;;;;;;20879493;28;20041;-77
2022/07/10 14:05:05;;;;;;;1.05;0.60;;;21.70;99.90;;;;;;20888174;28;20064;-77
2022/07/10 14:15:07;;;;;;;0.73;0.40;;;21.80;99.90;;;;;;20896967;28;20741;-77
2022/07/10 14:25:08;;;;;;;0.95;0.30;;;21.90;99.90;;;;;;20906122;28;20488;-78
2022/07/10 14:35:09;;;;;;;1.52;0.75;;;21.70;99.90;;;;;;20878077;28;20098;-78
2022/07/10 14:45:10;;;;;;;0.85;0.20;;;21.60;99.90;;;;;;20864115;28;20033;-78
2022/07/10 14:55:11;;;;;;;1.20;0.40;;;21.70;99.90;;;;;;20865266;28;22280;-78
2022/07/10 15:05:15;;;;;;;0.65;0.35;;;21.80;99.90;;;;;;20885432;28;20036;-78
2022/07/10 15:15:17;;;;;;;2.45;0.60;;;21.90;99.90;;;;;;20852987;28;20403;-79
2022/07/10 15:25:18;;;;;;;0.77;0.22;;;21.90;99.90;;;;;;20871417;28;20044;-79
2022/07/10 15:35:19;;;;;;;1.90;0.73;;;21.80;99.90;;;;;;20886361;28;20044;-79
2022/07/10 15:45:20;;;;;;;1.05;0.45;;;21.70;99.90;;;;;;20882687;28;20052;-79
2022/07/10 15:55:21;;;;;;;0.63;0.30;;;21.90;99.90;;;;;;20886487;28;20048;-79
2022/07/10 16:05:22;;;;;;;4.97;0.50;;;21.90;99.90;;;;;;20904769;28;20051;-79
2022/07/10 16:15:23;;;;;;;0.98;0.50;;;21.90;99.90;;;;;;20874844;28;20048;-79
2022/07/10 16:35:44;;;;;;;0.75;0.45;;;21.20;99.90;;;;;;20896932;28;20041;-79
2022/07/10 16:45:45;;;;;;;0.52;0.30;;;21.00;99.90;;;;;;20876292;28;20089;-78
2022/07/10 16:55:46;;;;;;;2.20;0.65;;;20.90;99.90;;;;;;20857622;28;20033;-78
2022/07/10 17:05:47;;;;;;;1.35;0.60;;;20.70;99.90;;;;;;20881197;28;20040;-77
2022/07/10 17:15:48;;;;;;;1.50;0.60;;;20.60;99.90;;;;;;20899762;28;20091;-79
2022/07/10 17:25:49;;;;;;;0.85;0.30;;;20.60;99.90;;;;;;20903020;28;20094;-79
2022/07/10 17:35:50;;;;;;;1.13;0.40;;;20.50;99.90;;;;;;20884463;28;20859;-80
2022/07/10 17:45:51;;;;;;;0.85;0.40;;;20.50;99.90;;;;;;20889275;28;20443;-80
2022/07/10 17:55:52;;;;;;;2.05;0.40;;;20.30;99.90;;;;;;20885600;28;20025;-80
2022/07/10 18:05:53;;;;;;;1.02;0.40;;;20.10;99.90;;;;;;20889309;28;20503;-80
2022/07/10 18:16:09;;;;;;;1.08;0.40;;;20.00;99.90;;;;;;20867545;28;20033;-80
2022/07/10 18:26:11;;;;;;;1.05;0.30;;;19.70;99.90;;;;;;20880546;28;20468;-80
2022/07/10 18:36:12;;;;;;;1.48;0.25;;;19.60;99.90;;;;;;20884990;28;20475;-80
2022/07/10 18:46:14;;;;;;;0.77;0.32;;;19.50;99.90;;;;;;20881210;28;20764;-79
2022/07/10 18:56:17;;;;;;;1.50;0.60;;;19.40;99.90;;;;;;20892962;28;20080;-81
2022/07/10 19:06:18;;;;;;;0.85;0.30;;;19.40;99.90;;;;;;20879923;28;20032;-81
2022/07/10 19:16:19;;;;;;;2.13;0.98;;;19.30;99.90;;;;;;20880529;28;20102;-80
2022/07/10 19:26:20;;;;;;;7.85;1.02;;;19.20;99.90;;;;;;20864139;28;20397;-82
2022/07/10 19:36:22;;;;;;;2.78;0.85;;;19.10;99.90;;;;;;20891871;28;20492;-80
2022/07/10 19:46:23;;;;;;;0.93;0.43;;;19.00;99.90;;;;;;20851650;28;20056;-81
2022/07/10 19:56:24;;;;;;;2.80;0.80;;;18.90;99.90;;;;;;20858083;28;20076;-80
2022/07/10 20:06:25;;;;;;;1.73;0.40;;;18.80;99.90;;;;;;20857344;28;20078;-80
2022/07/10 20:16:26;;;;;;;3.38;1.15;;;18.60;99.90;;;;;;20856456;28;20029;-80
2022/07/10 20:26:28;;;;;;;1.85;0.75;;;18.50;99.90;;;;;;20830895;28;20116;-80
2022/07/10 20:46:48;;;;;;;1.63;0.63;;;18.40;99.90;;;;;;20868182;28;20508;-81
2022/07/10 20:56:50;;;;;;;2.13;0.77;;;18.20;99.90;;;;;;20858323;28;20622;-81
2022/07/10 21:06:51;;;;;;;8.40;0.73;;;18.00;99.90;;;;;;20869624;28;20113;-81
2022/07/10 21:16:52;;;;;;;7.60;0.77;;;17.90;99.90;;;;;;20858693;28;20477;-81
2022/07/10 21:26:53;;;;;;;2.35;0.90;;;17.70;99.90;;;;;;20848308;28;20041;-81
2022/07/10 21:36:54;;;;;;;1.83;0.68;;;17.50;99.90;;;;;;20860114;28;20064;-81
2022/07/10 21:46:55;;;;;;;1.95;0.57;;;17.40;99.90;;;;;;20866727;28;20033;-81
2022/07/10 21:56:56;;;;;;;1.10;0.50;;;17.30;99.90;;;;;;20889500;28;20036;-80
2022/07/10 22:06:57;;;;;;;4.53;0.80;;;17.20;99.90;;;;;;20892253;28;20037;-81
2022/07/10 22:16:58;;;;;;;1.35;0.50;;;17.10;99.90;;;;;;20884060;28;20029;-81
2022/07/10 22:26:59;;;;;;;1.70;0.43;;;17.00;99.90;;;;;;20873798;28;20094;-81
2022/07/10 22:37:00;;;;;;;2.13;0.70;;;16.90;99.90;;;;;;20862713;28;20084;-81
2022/07/10 22:47:01;;;;;;;2.17;0.60;;;17.00;99.90;;;;;;20858537;28;20372;-81
2022/07/10 22:57:03;;;;;;;1.13;0.55;;;17.00;99.90;;;;;;20870855;28;20102;-81
2022/07/10 23:07:04;;;;;;;2.05;0.60;;;16.90;99.90;;;;;;20878431;28;20137;-82
2022/07/10 23:17:05;;;;;;;2.38;0.60;;;16.80;99.90;;;;;;20886945;28;20134;-82
2022/07/10 23:27:06;;;;;;;1.35;0.43;;;16.90;99.90;;;;;;20892180;28;20496;-81
2022/07/10 23:37:07;;;;;;;2.20;0.38;;;16.90;99.90;;;;;;20871394;28;20052;-81
2022/07/10 23:47:08;;;;;;;1.00;0.50;;;16.90;99.90;;;;;;20853353;28;20416;-81
2022/07/10 23:57:10;;;;;;;1.15;0.35;;;17.00;99.90;;;;;;20869245;28;20040;-81
